Time;durP1;ratioP1;P1;durP2;ratioP2;P2;SDS_P1;SDS_P2;PMS_P1;PMS_P2;Temp;Humidity;BMP_temperature;BMP_pressure;BME280_temperature;BME280_humidity;BME280_pressure;Samples;Min_cycle;Max_cycle;Signal;HPM_P1;HPM_P2
2023/08/11 00:01:07;;;;;;;4.97;2.10;;;21.80;68.70;;;24.52;45.16;102004.84;5036465;28;20606;-64
2023/08/11 00:03:35;;;;;;;4.20;2.50;;;21.70;68.50;;;24.45;44.83;102012.22;5036085;28;20183;-61
2023/08/11 00:06:05;;;;;;;4.77;2.17;;;21.70;68.60;;;24.39;44.95;102002.41;5036484;28;20198;-62
2023/08/11 00:08:36;;;;;;;2.43;2.10;;;21.70;68.70;;;24.34;45.66;102005.81;5036151;28;20662;-62
2023/08/11 00:11:03;;;;;;;1.90;1.80;;;21.60;69.40;;;24.33;45.67;102008.72;5036394;28;20211;-60
2023/08/11 00:13:31;;;;;;;1.90;1.67;;;21.60;69.50;;;24.33;45.42;102008.72;5035769;28;20562;-62
2023/08/11 00:15:58;;;;;;;3.13;2.00;;;21.60;69.70;;;24.34;45.45;102005.81;5036213;28;20288;-63
2023/08/11 00:18:27;;;;;;;3.67;1.70;;;21.50;70.00;;;24.37;45.74;102009.88;5035629;28;20267;-63
2023/08/11 00:20:54;;;;;;;2.10;1.87;;;21.50;70.10;;;24.41;45.49;102000.28;5035999;28;20547;-62
2023/08/11 00:23:21;;;;;;;4.10;2.03;;;21.50;70.30;;;24.44;45.33;102005.22;5035464;28;20687;-61
2023/08/11 00:25:48;;;;;;;4.17;2.13;;;21.50;70.50;;;24.41;45.36;101997.59;5036142;28;20268;-63
2023/08/11 00:28:15;;;;;;;1.97;1.73;;;21.50;70.50;;;24.43;45.57;101999.00;5035643;28;20186;-61
2023/08/11 00:30:42;;;;;;;4.13;1.93;;;21.50;70.50;;;24.45;45.51;101998.75;5034853;28;20297;-61
2023/08/11 00:33:10;;;;;;;4.93;1.90;;;21.50;70.50;;;24.45;45.84;101996.06;5035856;28;20272;-61
2023/08/11 00:35:41;;;;;;;2.00;1.80;;;21.50;70.60;;;24.42;45.38;101996.53;5028388;28;20624;-62
2023/08/11 00:38:08;;;;;;;4.13;2.20;;;21.50;70.60;;;24.39;46.04;101989.75;5029474;28;20226;-62
2023/08/11 00:40:36;;;;;;;2.17;1.97;;;21.60;70.80;;;24.35;45.87;101988.59;5035504;28;20214;-64
2023/08/11 00:43:03;;;;;;;2.20;1.73;;;21.50;70.90;;;24.30;46.05;101999.22;5035466;28;20647;-62
2023/08/11 00:45:31;;;;;;;6.83;1.97;;;21.50;71.10;;;24.26;46.14;101991.84;5035525;28;20279;-62
2023/08/11 00:47:58;;;;;;;2.87;1.73;;;21.50;71.00;;;24.24;46.10;101989.41;5035800;28;20547;-63
2023/08/11 00:50:26;;;;;;;3.07;1.83;;;21.40;71.10;;;24.27;46.48;101982.75;5035356;28;20617;-63
2023/08/11 00:52:54;;;;;;;2.13;2.00;;;21.40;71.50;;;24.29;46.16;101994.09;5035625;28;20217;-61
2023/08/11 00:55:22;;;;;;;3.30;1.67;;;21.40;71.60;;;24.31;45.94;101989.28;5035634;28;20201;-62
2023/08/11 00:57:49;;;;;;;2.83;1.70;;;21.40;71.50;;;24.34;46.17;101995.03;5035408;28;20199;-62
2023/08/11 01:00:16;;;;;;;3.60;2.00;;;21.40;71.50;;;24.37;46.58;101999.09;5034859;28;21048;-62
2023/08/11 01:02:44;;;;;;;3.03;2.33;;;21.40;71.90;;;24.36;46.26;102002.88;5035426;28;20194;-64
2023/08/11 01:05:15;;;;;;;2.87;1.60;;;21.50;72.00;;;24.36;46.40;102002.88;5035252;28;20240;-62
2023/08/11 01:07:58;;;;;;;3.10;1.63;;;21.50;72.00;;;24.37;46.09;101996.41;5035542;28;20248;-63
2023/08/11 01:10:35;;;;;;;4.30;2.67;;;21.50;72.00;;;24.38;46.30;101996.19;5034897;28;20210;-61
2023/08/11 01:13:13;;;;;;;4.00;1.77;;;21.50;72.30;;;24.34;46.87;101988.81;5035014;28;20207;-62
2023/08/11 01:15:48;;;;;;;4.07;2.10;;;21.50;72.30;;;24.30;46.89;101987.63;5035137;28;20226;-62
2023/08/11 01:18:17;;;;;;;2.50;2.10;;;21.50;72.50;;;24.24;46.57;101992.09;5034882;28;20285;-63
2023/08/11 01:20:48;;;;;;;2.63;1.93;;;21.40;72.40;;;24.20;46.60;101993.59;5035146;28;20682;-62
2023/08/11 01:23:19;;;;;;;4.70;2.23;;;21.40;72.60;;;24.14;46.85;101990.00;5034976;28;20186;-62
2023/08/11 01:25:47;;;;;;;3.80;1.83;;;21.30;72.80;;;24.08;47.31;101990.91;5035075;28;20202;-62
2023/08/11 01:28:15;;;;;;;2.43;2.07;;;21.30;72.80;;;24.04;47.28;101983.50;5034993;28;20209;-62
2023/08/11 01:30:42;;;;;;;4.23;2.40;;;21.30;73.10;;;24.01;47.77;101992.84;5034447;28;20218;-63
2023/08/11 01:33:09;;;;;;;4.27;2.30;;;21.20;73.50;;;23.96;47.85;101981.97;5034316;28;20210;-61
2023/08/11 01:35:36;;;;;;;2.57;1.90;;;21.20;73.80;;;23.93;48.03;101974.41;5026301;28;20226;-62
2023/08/11 01:38:08;;;;;;;3.97;2.37;;;21.20;73.70;;;23.92;48.18;101980.81;5028603;28;20226;-63
2023/08/11 01:40:38;;;;;;;3.47;2.20;;;21.10;73.70;;;23.94;47.73;101973.31;5034196;28;20229;-61
2023/08/11 01:43:10;;;;;;;2.63;1.90;;;21.10;73.80;;;23.92;47.41;101970.03;5034753;28;20195;-61
2023/08/11 01:45:38;;;;;;;4.70;2.03;;;21.10;73.70;;;23.95;47.67;101966.91;5035046;28;20531;-61
2023/08/11 01:48:08;;;;;;;4.93;2.10;;;21.20;73.80;;;24.00;47.77;101975.09;5037005;28;20225;-65
2023/08/11 01:50:37;;;;;;;2.57;2.10;;;21.10;73.70;;;24.03;47.08;101963.84;5036950;28;20206;-64
2023/08/11 01:53:04;;;;;;;4.60;2.20;;;21.10;73.80;;;24.04;47.60;101965.50;5035041;28;20214;-63
2023/08/11 01:55:31;;;;;;;4.20;2.20;;;21.20;73.80;;;24.03;47.67;101965.75;5034357;28;20226;-61
2023/08/11 01:58:00;;;;;;;2.67;1.90;;;21.20;73.80;;;24.04;47.22;101967.38;5034279;28;20191;-63
2023/08/11 02:00:28;;;;;;;4.43;2.00;;;21.20;73.80;;;24.03;47.53;101971.91;5033857;28;20216;-63
2023/08/11 02:02:57;;;;;;;3.13;2.20;;;21.20;73.90;;;24.00;47.68;101961.66;5034479;28;20194;-63
2023/08/11 02:05:25;;;;;;;2.33;2.13;;;21.20;74.00;;;24.01;47.66;101968.66;5033835;28;20210;-62
2023/08/11 02:07:55;;;;;;;2.03;1.70;;;21.20;73.90;;;24.02;47.15;101970.31;5034054;28;20267;-63
2023/08/11 02:10:22;;;;;;;2.43;1.80;;;21.20;73.90;;;24.02;47.50;101959.53;5033943;28;20268;-63
2023/08/11 02:12:49;;;;;;;2.60;1.97;;;21.20;74.00;;;24.01;47.29;101957.09;5034053;28;20211;-60
2023/08/11 02:15:18;;;;;;;2.47;2.27;;;21.10;73.90;;;23.97;47.66;101956.72;5033842;28;20208;-62
2023/08/11 02:17:45;;;;;;;4.33;2.17;;;21.10;74.10;;;23.92;47.85;101953.91;5033994;28;20229;-62
2023/08/11 02:20:21;;;;;;;3.73;2.03;;;21.10;74.30;;;23.87;47.80;101958.34;5033591;28;20234;-61
2023/08/11 02:22:52;;;;;;;6.77;2.00;;;21.10;74.40;;;23.81;48.12;101945.81;5033994;28;20202;-61
2023/08/11 02:25:19;;;;;;;3.27;2.20;;;21.10;74.40;;;23.77;48.44;101950.03;5033774;28;20195;-62
2023/08/11 02:27:47;;;;;;;4.57;2.40;;;21.00;74.40;;;23.76;48.09;101957.28;5033484;28;20269;-64
2023/08/11 02:30:14;;;;;;;2.87;1.90;;;21.00;74.40;;;23.76;48.00;101949.22;5033240;28;20210;-64
2023/08/11 02:32:45;;;;;;;4.03;2.60;;;21.00;74.40;;;23.75;48.20;101947.56;5033241;28;20293;-62
2023/08/11 02:35:13;;;;;;;5.53;2.40;;;21.00;74.60;;;23.75;48.27;101941.41;5029813;28;20249;-61
2023/08/11 02:37:41;;;;;;;4.40;2.80;;;21.00;74.90;;;23.72;48.44;101939.97;5024061;28;20202;-64
2023/08/11 02:40:10;;;;;;;3.60;2.40;;;20.90;74.90;;;23.70;48.43;101941.25;5033238;28;20311;-62
2023/08/11 02:42:45;;;;;;;5.47;2.70;;;20.90;75.00;;;23.69;48.14;101943.13;5033565;28;20213;-62
2023/08/11 02:45:12;;;;;;;2.67;1.77;;;20.90;74.80;;;23.73;48.42;101938.91;5033217;28;20281;-62
2023/08/11 02:47:40;;;;;;;2.57;2.07;;;20.90;74.70;;;23.78;48.14;101932.84;5033823;28;20237;-62
2023/08/11 02:50:10;;;;;;;2.67;2.47;;;21.00;74.90;;;23.82;47.74;101942.91;5033140;28;20691;-62
2023/08/11 02:52:37;;;;;;;3.03;1.80;;;20.90;74.90;;;23.88;48.18;101947.38;5033374;28;20182;-63
2023/08/11 02:55:07;;;;;;;4.40;2.00;;;21.00;74.90;;;23.94;47.93;101938.34;5033353;28;20674;-64
2023/08/11 02:57:35;;;;;;;4.93;2.47;;;21.00;74.90;;;23.98;47.68;101931.47;5033564;28;20194;-61
2023/08/11 03:00:12;;;;;;;2.63;1.80;;;21.10;75.00;;;24.01;47.50;101936.34;5033465;28;20237;-62
2023/08/11 03:02:39;;;;;;;3.50;2.27;;;21.10;74.90;;;24.05;47.97;101931.34;5033125;28;20244;-61
2023/08/11 03:05:12;;;;;;;4.70;2.20;;;21.10;74.80;;;24.08;47.61;101941.69;5033095;28;20208;-64
2023/08/11 03:07:43;;;;;;;2.90;2.40;;;21.10;74.80;;;24.08;47.69;101942.47;5033232;28;20244;-61
2023/08/11 03:10:10;;;;;;;4.33;2.60;;;21.20;74.60;;;24.08;47.11;101941.69;5032883;28;20222;-62
2023/08/11 03:12:37;;;;;;;4.70;2.10;;;21.20;74.40;;;24.08;47.50;101942.47;5033109;28;20194;-64
2023/08/11 03:15:07;;;;;;;3.80;2.63;;;21.20;74.40;;;24.10;47.19;101948.44;5033306;28;20241;-62
2023/08/11 03:17:37;;;;;;;3.03;2.40;;;21.20;74.40;;;24.10;47.19;101943.06;5033515;28;20269;-62
2023/08/11 03:20:12;;;;;;;5.50;3.20;;;21.20;74.40;;;24.09;47.77;101944.13;5033279;28;20226;-62
2023/08/11 03:22:43;;;;;;;2.93;2.27;;;21.20;74.60;;;24.04;47.37;101946.66;5032846;28;20205;-61
2023/08/11 03:25:14;;;;;;;4.60;2.57;;;21.20;74.50;;;24.00;47.73;101940.13;5033311;28;20179;-62
2023/08/11 03:27:42;;;;;;;4.83;2.90;;;21.20;75.00;;;23.94;48.01;101937.53;5033497;28;20274;-61
2023/08/11 03:30:12;;;;;;;5.87;3.17;;;21.20;75.30;;;23.88;48.87;101944.69;5033081;28;20211;-64
2023/08/11 03:32:39;;;;;;;3.63;2.33;;;21.10;75.70;;;23.84;48.64;101948.06;5033012;28;20193;-62
2023/08/11 03:35:07;;;;;;;4.53;2.77;;;21.10;75.50;;;23.83;48.94;101941.03;5029707;28;20656;-63
2023/08/11 03:37:35;;;;;;;3.30;2.83;;;21.00;75.80;;;23.82;48.86;101945.59;5022361;28;20206;-61
2023/08/11 03:40:09;;;;;;;4.27;2.53;;;21.00;75.90;;;23.83;49.05;101949.09;5032781;28;20242;-63
2023/08/11 03:42:36;;;;;;;5.80;3.17;;;21.00;75.90;;;23.83;48.99;101955.31;5032646;28;20202;-63
2023/08/11 03:45:04;;;;;;;6.17;2.97;;;21.00;76.20;;;23.81;48.66;101953.91;5032767;28;20194;-63
2023/08/11 03:47:31;;;;;;;4.03;2.93;;;21.00;76.30;;;23.78;49.42;101952.50;5032862;28;20202;-62
2023/08/11 03:49:58;;;;;;;5.47;2.77;;;21.00;76.80;;;23.75;49.07;101949.47;5030991;28;20310;-60
2023/08/11 03:52:25;;;;;;;7.63;3.17;;;20.90;76.70;;;23.74;49.17;101945.94;5032486;28;20198;-62
2023/08/11 03:54:52;;;;;;;5.87;2.93;;;21.00;77.00;;;23.74;49.52;101951.31;5032973;28;20639;-61
2023/08/11 03:57:21;;;;;;;4.70;2.53;;;20.90;77.20;;;23.72;49.61;101948.06;5033003;28;20274;-61
2023/08/11 03:59:48;;;;;;;5.03;2.87;;;20.90;77.30;;;23.73;49.83;101944.28;5036043;28;20309;-63
2023/08/11 04:02:15;;;;;;;5.83;2.73;;;20.90;77.50;;;23.72;49.64;101942.66;5036539;28;20552;-62
2023/08/11 04:04:42;;;;;;;5.93;2.87;;;20.90;77.50;;;23.70;49.54;101949.34;5036309;28;20190;-63
2023/08/11 04:07:10;;;;;;;6.97;3.13;;;20.90;77.60;;;23.67;49.96;101945.22;5036231;28;20277;-62
2023/08/11 04:09:43;;;;;;;4.77;2.50;;;20.80;77.80;;;23.65;49.91;101944.66;5036024;28;20206;-64
2023/08/11 04:12:11;;;;;;;3.90;2.70;;;20.80;77.60;;;23.66;49.75;101943.59;5036004;28;20186;-62
2023/08/11 04:14:40;;;;;;;3.73;2.53;;;20.80;77.80;;;23.67;49.89;101942.53;5035939;28;20213;-62
2023/08/11 04:17:07;;;;;;;5.10;3.20;;;20.80;77.90;;;23.67;50.34;101939.03;5035956;28;20194;-62
2023/08/11 04:19:34;;;;;;;5.30;2.97;;;20.80;78.30;;;23.64;50.21;101934.94;5036049;28;20309;-61
2023/08/11 04:22:01;;;;;;;7.80;3.67;;;20.80;78.30;;;23.58;50.40;101938.56;5035776;28;20542;-62
2023/08/11 04:24:28;;;;;;;4.17;3.10;;;20.80;78.30;;;23.51;50.45;101941.31;5036311;28;20293;-62
2023/08/11 04:26:55;;;;;;;13.20;5.10;;;20.70;78.40;;;23.47;50.48;101939.34;5035834;28;20318;-62
2023/08/11 04:29:22;;;;;;;4.43;3.37;;;20.70;78.50;;;23.46;50.78;101943.09;5035229;28;20210;-63
2023/08/11 04:31:51;;;;;;;4.13;3.40;;;20.70;78.70;;;23.42;50.75;101936.50;5035397;28;20193;-62
2023/08/11 04:34:18;;;;;;;4.73;3.30;;;20.70;78.90;;;23.40;50.79;101944.00;5035544;28;20667;-63
2023/08/11 04:36:45;;;;;;;5.83;3.77;;;20.60;79.10;;;23.38;50.90;101940.72;5035469;28;20678;-60
2023/08/11 04:39:12;;;;;;;4.27;3.00;;;20.60;79.10;;;23.39;50.72;101947.75;5035669;28;20260;-62
2023/08/11 04:41:39;;;;;;;5.03;3.03;;;20.60;79.00;;;23.42;50.82;101947.25;5035353;28;20198;-64
2023/08/11 04:44:06;;;;;;;5.17;2.97;;;20.60;79.10;;;23.42;50.66;101948.09;5035362;28;20270;-62
2023/08/11 04:46:33;;;;;;;5.10;3.07;;;20.60;79.00;;;23.45;50.71;101938.75;5035570;28;20226;-62
2023/08/11 04:49:02;;;;;;;3.53;3.23;;;20.60;79.00;;;23.46;50.68;101937.72;5035055;28;20658;-62
2023/08/11 04:51:29;;;;;;;3.57;2.83;;;20.60;79.10;;;23.46;50.67;101943.88;5035525;28;20245;-63
2023/08/11 04:54:00;;;;;;;2.90;2.70;;;20.60;79.10;;;23.47;50.69;101945.53;5035376;28;20210;-63
2023/08/11 04:56:27;;;;;;;5.30;3.37;;;20.60;79.00;;;23.47;50.54;101934.78;5035024;28;20222;-63
2023/08/11 04:58:55;;;;;;;6.97;3.67;;;20.60;79.10;;;23.45;50.76;101930.69;5034408;28;20230;-63
2023/08/11 05:01:22;;;;;;;6.17;3.47;;;20.70;79.30;;;23.46;50.77;101937.72;5035373;28;20218;-63
2023/08/11 05:03:50;;;;;;;3.83;3.40;;;20.60;79.20;;;23.47;50.90;101937.47;5034519;28;20253;-62
2023/08/11 05:06:19;;;;;;;6.00;4.23;;;20.60;79.30;;;23.47;50.92;101917.81;5034673;28;20225;-61
2023/08/11 05:08:47;;;;;;;3.10;2.80;;;20.60;79.40;;;23.50;50.74;101928.13;5034335;28;20643;-63
2023/08/11 05:11:14;;;;;;;3.93;3.33;;;20.60;79.20;;;23.54;50.83;101929.28;5035214;28;20293;-62
2023/08/11 05:13:41;;;;;;;4.17;3.50;;;20.70;79.40;;;23.57;50.96;101936.91;5034566;28;20272;-64
2023/08/11 05:16:09;;;;;;;4.53;2.93;;;20.70;79.50;;;23.60;50.60;101932.94;5035057;28;20182;-64
2023/08/11 05:18:36;;;;;;;8.70;4.20;;;20.70;79.40;;;23.61;50.61;101937.25;5034587;28;20194;-61
2023/08/11 05:21:10;;;;;;;5.30;3.47;;;20.70;79.20;;;23.58;50.63;101936.66;5034347;28;20210;-62
2023/08/11 05:23:38;;;;;;;6.27;3.47;;;20.80;79.40;;;23.56;50.54;101948.69;5034452;28;20190;-65
2023/08/11 05:26:05;;;;;;;6.83;3.80;;;20.70;79.20;;;23.50;51.07;101949.63;5034543;28;20226;-62
2023/08/11 05:28:32;;;;;;;3.87;3.43;;;20.70;79.30;;;23.47;50.89;101950.09;5034031;28;20218;-64
2023/08/11 05:31:01;;;;;;;4.53;3.73;;;20.70;79.40;;;23.47;51.12;101955.47;5033953;28;20758;-63
2023/08/11 05:33:28;;;;;;;5.20;3.70;;;20.70;79.50;;;23.46;51.09;101949.25;5034644;28;20282;-65
2023/08/11 05:35:55;;;;;;;6.57;3.87;;;20.70;79.60;;;23.46;51.01;101949.25;5033725;28;20695;-62
2023/08/11 05:38:22;;;;;;;4.77;4.23;;;20.70;79.70;;;23.46;51.13;101943.09;5034035;28;20191;-64
2023/08/11 05:40:52;;;;;;;3.77;3.37;;;20.70;79.70;;;23.47;51.43;101937.47;5034642;28;20210;-63
2023/08/11 05:43:19;;;;;;;5.97;3.57;;;20.70;79.80;;;23.50;51.17;101936.19;5033946;28;20657;-65
2023/08/11 05:45:46;;;;;;;4.20;3.70;;;20.70;80.00;;;23.56;51.08;101937.94;5033596;28;20195;-63
2023/08/11 05:48:13;;;;;;;5.67;3.80;;;20.70;80.00;;;23.62;51.06;101942.41;5033955;28;20195;-63
2023/08/11 05:50:44;;;;;;;7.60;4.30;;;20.80;80.20;;;23.64;51.02;101934.94;5033881;28;20652;-62
2023/08/11 05:53:12;;;;;;;5.97;3.73;;;20.80;80.10;;;23.69;51.16;101935.06;5033956;28;20292;-62
2023/08/11 05:55:39;;;;;;;4.10;3.37;;;20.80;79.90;;;23.75;51.03;101944.88;5034108;28;20220;-62
2023/08/11 05:58:07;;;;;;;8.00;3.87;;;20.80;79.80;;;23.87;50.57;101950.28;5033679;28;20201;-63
2023/08/11 06:00:34;;;;;;;4.30;3.17;;;20.90;79.90;;;24.00;50.50;101939.28;5033832;28;20218;-63
2023/08/11 06:03:02;;;;;;;7.47;4.13;;;21.00;79.90;;;24.05;50.35;101937.56;5033542;28;20209;-63
2023/08/11 06:05:29;;;;;;;4.30;3.90;;;21.00;79.60;;;24.08;49.95;101937.09;5033662;28;20194;-63
2023/08/11 06:07:56;;;;;;;6.17;4.30;;;21.10;79.50;;;24.14;49.88;101940.72;5033083;28;20204;-63
2023/08/11 06:10:33;;;;;;;4.37;3.90;;;21.20;79.40;;;24.12;49.74;101937.47;5033188;28;20218;-62
2023/08/11 06:13:00;;;;;;;6.90;4.57;;;21.20;78.80;;;24.07;50.16;101934.66;5032979;28;20220;-63
2023/08/11 06:15:30;;;;;;;5.83;3.93;;;21.20;78.70;;;24.09;49.61;101933.38;5033479;28;20309;-62
2023/08/11 06:17:57;;;;;;;6.17;3.77;;;21.20;78.60;;;24.11;50.19;101941.19;5033238;28;20594;-62
2023/08/11 06:20:24;;;;;;;7.20;4.07;;;21.30;78.80;;;24.16;49.97;101934.06;5032257;28;20670;-63
2023/08/11 06:23:07;;;;;;;7.70;4.27;;;21.30;78.80;;;24.22;49.57;101938.50;5033028;28;20191;-62
2023/08/11 06:25:34;;;;;;;4.50;3.73;;;21.30;78.60;;;24.31;49.93;101946.22;5033354;28;20750;-63
2023/08/11 06:28:01;;;;;;;6.03;4.23;;;21.40;78.70;;;24.40;49.49;101942.09;5033310;28;20679;-63
2023/08/11 06:30:30;;;;;;;4.93;3.87;;;21.40;78.40;;;24.44;48.74;101946.00;5032950;28;20296;-62
2023/08/11 06:32:57;;;;;;;4.13;3.67;;;21.50;78.10;;;24.51;49.47;101946.69;5032989;28;20198;-63
2023/08/11 06:35:25;;;;;;;4.53;3.73;;;21.50;78.20;;;24.58;49.14;101941.97;5033170;28;20210;-63
2023/08/11 06:37:52;;;;;;;4.93;3.80;;;21.60;78.10;;;24.66;48.58;101938.91;5032843;28;20794;-63
2023/08/11 06:40:19;;;;;;;5.10;4.00;;;21.60;77.90;;;24.72;49.34;101943.34;5032049;28;20217;-63
2023/08/11 06:42:46;;;;;;;4.47;3.97;;;21.70;78.10;;;24.78;49.01;101937.03;5032702;28;20293;-62
2023/08/11 06:45:14;;;;;;;4.17;3.67;;;21.80;77.90;;;24.82;48.33;101946.25;5032711;28;20197;-63
2023/08/11 06:47:42;;;;;;;4.97;4.17;;;21.80;77.70;;;24.88;48.60;101942.63;5033052;28;20222;-62
2023/08/11 06:50:10;;;;;;;4.00;3.60;;;21.90;77.20;;;24.94;48.05;101946.25;5032295;28;20210;-64
2023/08/11 06:52:37;;;;;;;4.43;3.90;;;22.00;77.00;;;24.97;48.20;101941.19;5032374;28;20183;-63
2023/08/11 06:55:05;;;;;;;4.20;3.57;;;22.00;76.80;;;25.05;47.78;101932.72;5033050;28;20210;-63
2023/08/11 06:57:32;;;;;;;4.40;3.47;;;22.00;76.60;;;25.11;47.57;101931.75;5032827;28;20202;-63
2023/08/11 06:59:59;;;;;;;4.27;3.40;;;22.10;76.30;;;25.18;47.54;101934.28;5032203;28;20268;-65
2023/08/11 07:02:26;;;;;;;4.83;3.60;;;22.20;76.20;;;25.23;47.41;101945.16;5032711;28;20281;-64
2023/08/11 07:04:55;;;;;;;3.53;3.23;;;22.20;76.20;;;25.29;47.25;101939.63;5033019;28;20252;-62
2023/08/11 07:07:22;;;;;;;3.13;2.83;;;22.30;76.30;;;25.38;47.82;101938.19;5032730;28;20225;-64
2023/08/11 07:09:49;;;;;;;7.33;3.23;;;22.40;76.40;;;25.46;47.18;101940.50;5032750;28;20754;-64
2023/08/11 07:12:16;;;;;;;6.33;3.27;;;22.40;76.20;;;25.52;47.28;101936.00;5033833;28;20221;-63
2023/08/11 07:14:43;;;;;;;3.43;3.13;;;22.50;75.30;;;25.56;47.19;101939.84;5034421;28;20233;-60
2023/08/11 07:17:10;;;;;;;5.00;3.67;;;22.60;75.30;;;25.59;46.63;101944.75;5032800;28;20677;-65
2023/08/11 07:19:38;;;;;;;3.43;3.13;;;22.60;74.70;;;25.60;46.43;101946.41;5032580;28;20221;-63
2023/08/11 07:22:06;;;;;;;5.17;4.07;;;22.70;75.00;;;25.66;47.13;101950.00;5032845;28;20187;-64
2023/08/11 07:24:34;;;;;;;3.13;2.83;;;22.70;75.00;;;25.70;46.77;101948.47;5031822;28;20269;-64
2023/08/11 07:27:01;;;;;;;4.57;2.70;;;22.80;74.60;;;25.77;46.66;101951.81;5023152;28;20636;-63
2023/08/11 07:29:28;;;;;;;3.80;3.40;;;22.80;74.30;;;25.85;46.53;101951.38;5022066;28;20277;-65
2023/08/11 07:31:57;;;;;;;3.83;3.20;;;22.90;74.20;;;25.87;45.54;101963.56;5022681;28;20329;-63
2023/08/11 07:34:24;;;;;;;4.90;2.53;;;22.90;73.20;;;25.84;46.42;101964.06;5025705;28;20210;-63
2023/08/11 07:36:51;;;;;;;3.73;2.63;;;23.00;73.70;;;25.88;46.25;101953.59;5027484;28;20199;-63
2023/08/11 07:39:20;;;;;;;4.17;2.60;;;23.00;73.30;;;25.85;45.82;101954.09;5025849;28;20580;-65
2023/08/11 07:41:50;;;;;;;2.60;2.40;;;23.00;73.70;;;25.85;46.11;101948.69;5026818;28;20229;-65
2023/08/11 07:44:17;;;;;;;3.30;2.40;;;23.10;73.10;;;25.94;45.71;101952.59;5025550;28;20651;-63
2023/08/11 07:46:45;;;;;;;3.20;2.50;;;23.10;73.20;;;26.10;45.51;101949.09;5026319;28;20249;-65
2023/08/11 07:49:12;;;;;;;2.60;2.40;;;23.20;73.30;;;26.58;44.93;101941.13;5024629;28;20281;-64
2023/08/11 07:51:40;;;;;;;2.40;2.07;;;23.40;73.30;;;27.40;44.19;101947.25;5026089;28;20202;-63
2023/08/11 07:54:08;;;;;;;3.07;1.90;;;23.70;73.90;;;28.23;41.87;101944.91;5023209;28;20206;-63
2023/08/11 07:56:37;;;;;;;2.13;1.87;;;24.10;71.50;;;29.14;40.25;101941.53;5025055;28;20264;-65
2023/08/11 07:59:04;;;;;;;1.80;1.70;;;24.60;71.20;;;30.16;39.05;101935.03;5024922;28;20203;-61
2023/08/11 08:01:31;;;;;;;2.20;1.77;;;25.20;69.00;;;31.01;36.06;101938.50;5026940;28;20666;-61
2023/08/11 08:03:58;;;;;;;1.47;1.37;;;25.80;65.80;;;31.80;35.70;101939.03;5025727;28;20599;-63
2023/08/11 08:06:26;;;;;;;2.13;1.13;;;26.50;65.30;;;32.70;33.10;101934.50;5025267;28;20199;-64
2023/08/11 08:08:53;;;;;;;1.47;1.20;;;27.10;61.90;;;33.38;32.56;101932.16;5023586;28;20639;-65
2023/08/11 08:11:20;;;;;;;1.30;1.20;;;27.80;60.00;;;34.15;30.65;101931.66;5025184;28;20695;-65
2023/08/11 08:13:48;;;;;;;1.47;1.03;;;28.40;57.20;;;34.72;29.78;101931.84;5025710;28;20195;-66
2023/08/11 08:16:16;;;;;;;2.00;1.13;;;29.00;55.90;;;35.32;29.82;101937.06;5024742;28;20276;-64
2023/08/11 08:18:43;;;;;;;0.90;0.90;;;29.60;54.10;;;35.61;27.49;101926.44;5024056;28;20644;-64
2023/08/11 08:21:11;;;;;;;1.00;1.00;;;30.00;49.70;;;35.71;27.88;101920.72;5025922;28;20264;-64
2023/08/11 08:23:38;;;;;;;1.58;1.17;;;30.40;49.50;;;36.10;27.44;101916.41;5025109;28;20222;-63
2023/08/11 08:26:05;;;;;;;1.55;1.20;;;30.80;49.00;;;36.52;26.99;101929.44;5023715;28;20219;-65
2023/08/11 08:28:33;;;;;;;1.83;1.35;;;31.10;47.60;;;36.97;25.38;101911.59;5024847;28;21086;-65
2023/08/11 08:31:01;;;;;;;1.15;1.13;;;31.40;45.70;;;36.88;25.41;101924.50;5025252;28;20230;-67
2023/08/11 08:33:28;;;;;;;1.58;1.10;;;31.50;44.30;;;36.96;25.48;101928.41;5025753;28;20200;-66
2023/08/11 08:35:56;;;;;;;1.75;1.38;;;31.80;44.70;;;37.42;25.67;101927.75;5023973;28;20675;-65
2023/08/11 08:38:23;;;;;;;1.55;1.30;;;32.10;45.40;;;38.02;24.40;101933.91;5025133;28;20210;-65
2023/08/11 08:40:50;;;;;;;1.25;1.17;;;32.30;42.90;;;38.23;23.70;101929.25;5025568;28;20280;-64
2023/08/11 08:43:17;;;;;;;1.48;1.38;;;32.50;41.70;;;38.38;23.66;101925.97;5025144;28;20207;-63
2023/08/11 08:45:47;;;;;;;2.97;1.27;;;32.80;41.50;;;38.75;23.09;101912.47;5025362;28;20211;-65
2023/08/11 08:48:30;;;;;;;1.77;1.67;;;33.10;40.70;;;39.12;22.67;101909.56;5025393;28;20321;-65
2023/08/11 08:50:58;;;;;;;3.53;3.22;;;33.30;40.40;;;39.13;22.76;101924.16;5024475;28;20260;-64
2023/08/11 08:53:26;;;;;;;1.10;1.10;;;33.40;39.50;;;39.28;22.07;101925.47;5024731;28;20271;-65
2023/08/11 08:55:53;;;;;;;1.77;1.50;;;33.60;39.20;;;39.53;21.80;101922.47;5024691;28;20272;-64
2023/08/11 08:58:20;;;;;;;1.33;1.23;;;33.80;38.70;;;39.71;22.30;101925.84;5024781;28;20285;-62
2023/08/11 09:00:47;;;;;;;1.52;1.42;;;33.90;38.30;;;39.83;21.62;101926.66;5024695;28;20320;-66
2023/08/11 09:03:16;;;;;;;1.40;1.30;;;34.00;37.50;;;40.04;21.91;101925.78;5024424;28;20218;-63
2023/08/11 09:05:43;;;;;;;1.38;1.20;;;34.20;37.70;;;40.09;21.35;101928.31;5025568;28;20290;-64
2023/08/11 09:08:10;;;;;;;1.20;1.20;;;34.30;37.50;;;40.12;21.22;101927.63;5025009;28;20222;-64
2023/08/11 09:10:38;;;;;;;1.92;1.60;;;34.30;36.50;;;40.17;21.74;101927.41;5024345;28;20224;-65
2023/08/11 09:13:06;;;;;;;1.25;1.20;;;34.50;36.80;;;40.31;21.15;101936.13;5024667;28;20242;-64
2023/08/11 09:15:33;;;;;;;1.20;1.20;;;34.60;36.60;;;40.67;21.10;101932.53;5024349;28;20672;-65
2023/08/11 09:18:00;;;;;;;1.30;1.20;;;34.70;36.50;;;40.69;20.65;101930.22;5024989;28;20294;-63
2023/08/11 09:20:29;;;;;;;1.40;1.30;;;34.80;35.80;;;40.65;20.87;101924.63;5024016;28;20270;-63
2023/08/11 09:22:56;;;;;;;1.27;1.27;;;34.80;35.90;;;40.71;21.01;101920.44;5025663;28;20278;-64
2023/08/11 09:25:23;;;;;;;1.30;1.30;;;34.80;35.80;;;40.61;20.37;101929.19;5025236;28;20704;-63
2023/08/11 09:27:51;;;;;;;1.17;1.10;;;34.70;36.20;;;40.45;20.52;101926.38;5024145;28;20195;-62
2023/08/11 09:30:18;;;;;;;1.52;1.42;;;34.70;35.90;;;40.61;20.92;101914.59;5023363;28;20703;-66
2023/08/11 09:32:48;;;;;;;1.40;1.38;;;34.70;35.90;;;40.30;20.32;101912.41;5024305;28;20207;-62
2023/08/11 09:35:23;;;;;;;2.80;1.33;;;34.40;35.40;;;39.82;21.22;101925.03;5024045;28;20254;-65
2023/08/11 09:37:53;;;;;;;1.15;1.10;;;34.30;35.80;;;39.99;21.39;101921.25;5024945;28;20276;-66
2023/08/11 09:40:21;;;;;;;1.50;1.17;;;34.40;36.60;;;40.12;20.88;101930.41;5023205;28;20556;-66
2023/08/11 09:42:48;;;;;;;2.67;1.20;;;34.30;35.80;;;40.12;20.88;101928.44;5023192;28;20281;-65
2023/08/11 09:45:17;;;;;;;6.75;1.42;;;34.30;35.80;;;40.21;21.08;101931.06;5024869;28;20282;-64
2023/08/11 09:47:45;;;;;;;1.52;1.42;;;34.40;36.00;;;40.44;20.70;101923.94;5024077;28;20206;-65
2023/08/11 09:50:14;;;;;;;1.60;1.50;;;34.50;36.10;;;40.93;20.92;101925.47;5022473;28;20238;-66
2023/08/11 09:52:43;;;;;;;1.05;1.02;;;34.70;36.50;;;41.60;20.49;101918.25;5026295;28;20203;-63
2023/08/11 09:55:13;;;;;;;1.70;1.60;;;35.10;35.60;;;42.03;19.85;101923.72;5023914;28;20210;-65
2023/08/11 09:57:42;;;;;;;1.20;1.20;;;35.40;35.30;;;42.38;18.93;101927.34;5023070;28;20277;-66
2023/08/11 10:00:12;;;;;;;1.10;1.10;;;35.70;34.50;;;42.36;18.92;101929.66;5022806;28;20211;-64
2023/08/11 10:02:47;;;;;;;2.60;1.65;;;35.80;34.10;;;42.45;18.96;101927.50;5025292;28;20303;-64
2023/08/11 10:05:17;;;;;;;1.67;1.23;;;36.00;34.20;;;42.40;18.78;101927.78;5024904;28;20245;-62
2023/08/11 10:07:48;;;;;;;1.58;1.48;;;36.00;33.40;;;42.34;18.90;101925.66;5022595;28;20214;-65
2023/08/11 10:10:19;;;;;;;1.50;1.40;;;36.10;33.80;;;42.43;19.19;101926.25;5022788;28;20215;-63
2023/08/11 10:12:54;;;;;;;1.42;1.30;;;36.20;33.30;;;42.63;19.04;101925.13;5023596;28;20198;-64
2023/08/11 10:15:23;;;;;;;1.88;1.73;;;36.30;33.40;;;42.60;18.93;101930.59;5023312;28;20288;-64
2023/08/11 10:17:51;;;;;;;2.90;1.65;;;36.30;33.00;;;42.78;18.72;101921.50;5023832;28;20702;-63